sensor_id;sensor_type;location;lat;lon;timestamp;pressure;altitude;pressure_sealevel;temperature;humidity
27643;BME280;15053;48.618;10.024;2023-12-20T00:01:24;94184.53;;;5.98;96.27
27643;BME280;15053;48.618;10.024;2023-12-20T00:03:50;94188.69;;;5.99;96.52
27643;BME280;15053;48.618;10.024;2023-12-20T00:06:17;94185.31;;;5.98;96.90
27643;BME280;15053;48.618;10.024;2023-12-20T00:08:44;94158.69;;;5.98;97.01
27643;BME280;15053;48.618;10.024;2023-12-20T00:11:10;94174.72;;;6.00;97.09
27643;BME280;15053;48.618;10.024;2023-12-20T00:13:37;94186.09;;;5.99;96.94
27643;BME280;15053;48.618;10.024;2023-12-20T00:16:03;94179.91;;;5.89;97.42
27643;BME280;15053;48.618;10.024;2023-12-20T00:18:30;94189.72;;;5.98;97.76
27643;BME280;15053;48.618;10.024;2023-12-20T00:20:56;94202.13;;;5.96;97.96
27643;BME280;15053;48.618;10.024;2023-12-20T00:23:23;94194.88;;;5.98;98.41
27643;BME280;15053;48.618;10.024;2023-12-20T00:25:50;94180.16;;;5.98;98.71
27643;BME280;15053;48.618;10.024;2023-12-20T00:28:16;94188.94;;;6.02;98.82
27643;BME280;15053;48.618;10.024;2023-12-20T00:30:43;94188.41;;;6.05;99.20
27643;BME280;15053;48.618;10.024;2023-12-20T00:33:10;94184.53;;;6.08;98.48
27643;BME280;15053;48.618;10.024;2023-12-20T00:35:36;94188.94;;;6.12;99.34
27643;BME280;15053;48.618;10.024;2023-12-20T00:38:03;94180.38;;;6.17;99.53
27643;BME280;15053;48.618;10.024;2023-12-20T00:40:31;94164.88;;;6.22;100.00
27643;BME280;15053;48.618;10.024;2023-12-20T00:42:58;94156.31;;;6.26;100.00
27643;BME280;15053;48.618;10.024;2023-12-20T00:45:24;94166.41;;;6.33;100.00
27643;BME280;15053;48.618;10.024;2023-12-20T00:47:51;94156.31;;;6.36;100.00
27643;BME280;15053;48.618;10.024;2023-12-20T00:50:18;94143.63;;;6.40;100.00
27643;BME280;15053;48.618;10.024;2023-12-20T00:52:45;94143.09;;;6.43;100.00
27643;BME280;15053;48.618;10.024;2023-12-20T00:55:12;94137.41;;;6.41;99.83
27643;BME280;15053;48.618;10.024;2023-12-20T00:57:39;94137.16;;;6.37;99.74
27643;BME280;15053;48.618;10.024;2023-12-20T01:00:06;94137.94;;;6.33;98.64
27643;BME280;15053;48.618;10.024;2023-12-20T01:02:32;94118.84;;;6.24;99.43
27643;BME280;15053;48.618;10.024;2023-12-20T01:04:59;94118.06;;;6.18;99.71
27643;BME280;15053;48.618;10.024;2023-12-20T01:07:26;94117.84;;;6.15;98.88
27643;BME280;15053;48.618;10.024;2023-12-20T01:09:52;94114.50;;;6.09;98.08
27643;BME280;15053;48.618;10.024;2023-12-20T01:12:19;94118.34;;;6.02;98.49
27643;BME280;15053;48.618;10.024;2023-12-20T01:14:46;94121.75;;;5.97;98.29
27643;BME280;15053;48.618;10.024;2023-12-20T01:17:13;94123.31;;;5.93;98.84
27643;BME280;15053;48.618;10.024;2023-12-20T01:19:39;94126.91;;;5.92;98.92
27643;BME280;15053;48.618;10.024;2023-12-20T01:22:06;94116.84;;;5.90;98.74
27643;BME280;15053;48.618;10.024;2023-12-20T01:24:32;94126.41;;;5.90;99.79
27643;BME280;15053;48.618;10.024;2023-12-20T01:26:59;94123.03;;;5.89;98.72
27643;BME280;15053;48.618;10.024;2023-12-20T01:29:25;94130.78;;;5.89;99.46
27643;BME280;15053;48.618;10.024;2023-12-20T01:31:52;94130.28;;;5.87;98.95
27643;BME280;15053;48.618;10.024;2023-12-20T01:34:19;94136.75;;;5.85;99.43
27643;BME280;15053;48.618;10.024;2023-12-20T01:36:45;94123.56;;;5.86;99.06
27643;BME280;15053;48.618;10.024;2023-12-20T01:39:12;94123.84;;;5.85;99.97
27643;BME280;15053;48.618;10.024;2023-12-20T01:41:53;94136.47;;;5.86;100.00
27643;BME280;15053;48.618;10.024;2023-12-20T01:44:20;94146.53;;;5.83;100.00
27643;BME280;15053;48.618;10.024;2023-12-20T01:46:47;94136.97;;;5.78;100.00
27643;BME280;15053;48.618;10.024;2023-12-20T01:49:14;94147.56;;;5.82;100.00
27643;BME280;15053;48.618;10.024;2023-12-20T01:51:42;94153.00;;;5.80;100.00
27643;BME280;15053;48.618;10.024;2023-12-20T01:54:09;94141.88;;;5.80;100.00
27643;BME280;15053;48.618;10.024;2023-12-20T01:56:35;94139.56;;;5.78;100.00
27643;BME280;15053;48.618;10.024;2023-12-20T01:59:02;94148.34;;;5.77;100.00
27643;BME280;15053;48.618;10.024;2023-12-20T02:01:31;94142.16;;;5.73;100.00
27643;BME280;15053;48.618;10.024;2023-12-20T02:03:58;94139.03;;;5.71;100.00
27643;BME280;15053;48.618;10.024;2023-12-20T02:06:29;94137.50;;;5.65;100.00
27643;BME280;15053;48.618;10.024;2023-12-20T02:08:58;94140.59;;;5.57;100.00
27643;BME280;15053;48.618;10.024;2023-12-20T02:11:25;94135.94;;;5.54;100.00
27643;BME280;15053;48.618;10.024;2023-12-20T02:13:52;94135.41;;;5.52;100.00
27643;BME280;15053;48.618;10.024;2023-12-20T02:16:19;94130.00;;;5.49;100.00
27643;BME280;15053;48.618;10.024;2023-12-20T02:18:46;94132.06;;;5.47;100.00
27643;BME280;15053;48.618;10.024;2023-12-20T02:21:12;94126.66;;;5.43;100.00
27643;BME280;15053;48.618;10.024;2023-12-20T02:23:39;94121.22;;;5.40;100.00
27643;BME280;15053;48.618;10.024;2023-12-20T02:26:05;94127.66;;;5.42;100.00
27643;BME280;15053;48.618;10.024;2023-12-20T02:28:33;94126.09;;;5.36;100.00
27643;BME280;15053;48.618;10.024;2023-12-20T02:31:00;94124.56;;;5.35;100.00
27643;BME280;15053;48.618;10.024;2023-12-20T02:33:26;94118.38;;;5.41;100.00
27643;BME280;15053;48.618;10.024;2023-12-20T02:35:53;94120.97;;;5.46;100.00
27643;BME280;15053;48.618;10.024;2023-12-20T02:38:19;94136.97;;;5.53;100.00
27643;BME280;15053;48.618;10.024;2023-12-20T02:40:46;94139.81;;;5.62;100.00
27643;BME280;15053;48.618;10.024;2023-12-20T02:43:15;94130.78;;;5.64;100.00
27643;BME280;15053;48.618;10.024;2023-12-20T02:45:42;94130.25;;;5.67;100.00
27643;BME280;15053;48.618;10.024;2023-12-20T02:48:09;94119.94;;;5.67;100.00
27643;BME280;15053;48.618;10.024;2023-12-20T02:50:35;94138.53;;;5.69;100.00
27643;BME280;15053;48.618;10.024;2023-12-20T02:53:02;94141.09;;;5.69;100.00
27643;BME280;15053;48.618;10.024;2023-12-20T02:55:28;94140.09;;;5.65;100.00
27643;BME280;15053;48.618;10.024;2023-12-20T02:57:55;94130.28;;;5.62;100.00
27643;BME280;15053;48.618;10.024;2023-12-20T03:00:22;94138.00;;;5.62;100.00
27643;BME280;15053;48.618;10.024;2023-12-20T03:02:48;94142.91;;;5.59;100.00
27643;BME280;15053;48.618;10.024;2023-12-20T03:05:14;94133.38;;;5.54;100.00
27643;BME280;15053;48.618;10.024;2023-12-20T03:07:41;94150.91;;;5.47;100.00
27643;BME280;15053;48.618;10.024;2023-12-20T03:10:08;94131.31;;;5.41;100.00
27643;BME280;15053;48.618;10.024;2023-12-20T03:12:45;94132.31;;;5.35;100.00
27643;BME280;15053;48.618;10.024;2023-12-20T03:15:12;94135.94;;;5.34;100.00
27643;BME280;15053;48.618;10.024;2023-12-20T03:17:39;94135.94;;;5.29;100.00
27643;BME280;15053;48.618;10.024;2023-12-20T03:20:06;94124.03;;;5.28;100.00
27643;BME280;15053;48.618;10.024;2023-12-20T03:22:33;94118.63;;;5.24;100.00
27643;BME280;15053;48.618;10.024;2023-12-20T03:24:59;94124.03;;;5.23;100.00
27643;BME280;15053;48.618;10.024;2023-12-20T03:27:26;94117.31;;;5.22;100.00
27643;BME280;15053;48.618;10.024;2023-12-20T03:29:53;94123.00;;;5.24;100.00
27643;BME280;15053;48.618;10.024;2023-12-20T03:32:19;94113.97;;;5.16;100.00
27643;BME280;15053;48.618;10.024;2023-12-20T03:34:46;94123.53;;;5.21;100.00
27643;BME280;15053;48.618;10.024;2023-12-20T03:37:13;94121.19;;;5.19;100.00
27643;BME280;15053;48.618;10.024;2023-12-20T03:39:40;94113.44;;;5.19;100.00
27643;BME280;15053;48.618;10.024;2023-12-20T03:42:06;94123.53;;;5.16;100.00
27643;BME280;15053;48.618;10.024;2023-12-20T03:44:33;94116.81;;;5.20;100.00
27643;BME280;15053;48.618;10.024;2023-12-20T03:46:59;94132.56;;;5.23;100.00
27643;BME280;15053;48.618;10.024;2023-12-20T03:49:26;94128.97;;;5.24;100.00
27643;BME280;15053;48.618;10.024;2023-12-20T03:51:52;94126.88;;;5.26;100.00
27643;BME280;15053;48.618;10.024;2023-12-20T03:54:23;94100.03;;;5.07;100.00
27643;BME280;15053;48.618;10.024;2023-12-20T03:56:50;94143.16;;;5.27;100.00
27643;BME280;15053;48.618;10.024;2023-12-20T03:59:18;94127.41;;;5.23;100.00
27643;BME280;15053;48.618;10.024;2023-12-20T04:01:45;94132.06;;;5.26;100.00
27643;BME280;15053;48.618;10.024;2023-12-20T04:04:13;94131.78;;;5.28;100.00
27643;BME280;15053;48.618;10.024;2023-12-20T04:06:40;94124.53;;;5.25;100.00
27643;BME280;15053;48.618;10.024;2023-12-20T04:09:06;94136.44;;;5.26;100.00
27643;BME280;15053;48.618;10.024;2023-12-20T04:11:36;94130.25;;;5.27;100.00
27643;BME280;15053;48.618;10.024;2023-12-20T04:14:03;94133.84;;;5.26;100.00
27643;BME280;15053;48.618;10.024;2023-12-20T04:16:31;94130.75;;;5.24;100.00
27643;BME280;15053;48.618;10.024;2023-12-20T04:18:57;94135.38;;;5.22;100.00
27643;BME280;15053;48.618;10.024;2023-12-20T04:21:24;94133.84;;;5.21;100.00
27643;BME280;15053;48.618;10.024;2023-12-20T04:23:51;94144.19;;;5.21;100.00
27643;BME280;15053;48.618;10.024;2023-12-20T04:26:17;94148.28;;;5.17;100.00
27643;BME280;15053;48.618;10.024;2023-12-20T04:28:43;94150.34;;;5.15;100.00
27643;BME280;15053;48.618;10.024;2023-12-20T04:31:10;94155.50;;;5.15;100.00
27643;BME280;15053;48.618;10.024;2023-12-20T04:33:37;94162.75;;;5.13;100.00
27643;BME280;15053;48.618;10.024;2023-12-20T04:36:03;94155.50;;;5.15;100.00
27643;BME280;15053;48.618;10.024;2023-12-20T04:38:30;94157.59;;;5.13;100.00
27643;BME280;15053;48.618;10.024;2023-12-20T04:40:57;94158.38;;;5.13;100.00
27643;BME280;15053;48.618;10.024;2023-12-20T04:43:23;94166.63;;;5.15;100.00
27643;BME280;15053;48.618;10.024;2023-12-20T04:45:51;94159.38;;;5.12;100.00
27643;BME280;15053;48.618;10.024;2023-12-20T04:48:17;94159.66;;;5.11;100.00
27643;BME280;15053;48.618;10.024;2023-12-20T04:50:44;94164.03;;;5.10;100.00
27643;BME280;15053;48.618;10.024;2023-12-20T04:53:11;94168.91;;;5.07;100.00
27643;BME280;15053;48.618;10.024;2023-12-20T04:55:37;94167.09;;;5.02;100.00
27643;BME280;15053;48.618;10.024;2023-12-20T04:58:05;94178.97;;;5.03;100.00
27643;BME280;15053;48.618;10.024;2023-12-20T05:00:32;94170.44;;;5.03;100.00
27643;BME280;15053;48.618;10.024;2023-12-20T05:02:58;94170.19;;;4.99;100.00
27643;BME280;15053;48.618;10.024;2023-12-20T05:05:25;94167.34;;;4.96;100.00
27643;BME280;15053;48.618;10.024;2023-12-20T05:07:51;94171.19;;;4.93;100.00
27643;BME280;15053;48.618;10.024;2023-12-20T05:10:19;94175.06;;;4.91;100.00
27643;BME280;15053;48.618;10.024;2023-12-20T05:12:45;94186.41;;;4.90;100.00
27643;BME280;15053;48.618;10.024;2023-12-20T05:15:12;94181.00;;;4.86;100.00
27643;BME280;15053;48.618;10.024;2023-12-20T05:17:38;94192.84;;;4.82;100.00
27643;BME280;15053;48.618;10.024;2023-12-20T05:20:06;94187.16;;;4.80;100.00
27643;BME280;15053;48.618;10.024;2023-12-20T05:22:33;94203.38;;;4.75;100.00
27643;BME280;15053;48.618;10.024;2023-12-20T05:24:59;94207.78;;;4.75;100.00
27643;BME280;15053;48.618;10.024;2023-12-20T05:27:26;94218.31;;;4.73;100.00
27643;BME280;15053;48.618;10.024;2023-12-20T05:29:52;94220.38;;;4.71;100.00
27643;BME280;15053;48.618;10.024;2023-12-20T05:32:19;94209.50;;;4.64;100.00
27643;BME280;15053;48.618;10.024;2023-12-20T05:34:45;94218.81;;;4.65;100.00
27643;BME280;15053;48.618;10.024;2023-12-20T05:37:12;94210.03;;;4.61;100.00
27643;BME280;15053;48.618;10.024;2023-12-20T05:39:38;94204.59;;;4.58;100.00
27643;BME280;15053;48.618;10.024;2023-12-20T05:42:05;94224.19;;;4.59;100.00
27643;BME280;15053;48.618;10.024;2023-12-20T05:44:31;94220.28;;;4.56;100.00
27643;BME280;15053;48.618;10.024;2023-12-20T05:46:58;94222.34;;;4.54;100.00
27643;BME280;15053;48.618;10.024;2023-12-20T05:49:24;94219.53;;;4.56;100.00
27643;BME280;15053;48.618;10.024;2023-12-20T05:51:51;94227.50;;;4.54;100.00
27643;BME280;15053;48.618;10.024;2023-12-20T05:54:18;94246.56;;;4.53;100.00
27643;BME280;15053;48.618;10.024;2023-12-20T05:56:44;94237.81;;;4.54;100.00
27643;BME280;15053;48.618;10.024;2023-12-20T05:59:11;94243.47;;;4.51;100.00
27643;BME280;15053;48.618;10.024;2023-12-20T06:01:37;94241.41;;;4.48;100.00
27643;BME280;15053;48.618;10.024;2023-12-20T06:04:04;94248.41;;;4.53;100.00
27643;BME280;15053;48.618;10.024;2023-12-20T06:06:30;94253.00;;;4.51;100.00
27643;BME280;15053;48.618;10.024;2023-12-20T06:08:57;94244.53;;;4.50;100.00
27643;BME280;15053;48.618;10.024;2023-12-20T06:11:23;94247.09;;;4.50;100.00
27643;BME280;15053;48.618;10.024;2023-12-20T06:13:50;94248.63;;;4.51;100.00
27643;BME280;15053;48.618;10.024;2023-12-20T06:16:19;94251.72;;;4.48;100.00
27643;BME280;15053;48.618;10.024;2023-12-20T06:18:46;94261.00;;;4.49;100.00
27643;BME280;15053;48.618;10.024;2023-12-20T06:21:12;94268.47;;;4.51;100.00
27643;BME280;15053;48.618;10.024;2023-12-20T06:23:39;94266.16;;;4.49;100.00
27643;BME280;15053;48.618;10.024;2023-12-20T06:26:06;94268.97;;;4.48;100.00
27643;BME280;15053;48.618;10.024;2023-12-20T06:28:32;94273.13;;;4.49;100.00
27643;BME280;15053;48.618;10.024;2023-12-20T06:30:59;94281.13;;;4.47;100.00
27643;BME280;15053;48.618;10.024;2023-12-20T06:33:27;94284.44;;;4.48;100.00
27643;BME280;15053;48.618;10.024;2023-12-20T06:35:53;94287.28;;;4.46;100.00
27643;BME280;15053;48.618;10.024;2023-12-20T06:38:20;94287.28;;;4.46;100.00
27643;BME280;15053;48.618;10.024;2023-12-20T06:40:46;94285.50;;;4.47;100.00
27643;BME280;15053;48.618;10.024;2023-12-20T06:43:13;94278.53;;;4.47;100.00
27643;BME280;15053;48.618;10.024;2023-12-20T06:45:58;94279.53;;;4.46;100.00
27643;BME280;15053;48.618;10.024;2023-12-20T06:48:24;94276.97;;;4.46;100.00
27643;BME280;15053;48.618;10.024;2023-12-20T06:50:51;94285.22;;;4.48;100.00
27643;BME280;15053;48.618;10.024;2023-12-20T06:53:17;94291.69;;;4.51;100.00
27643;BME280;15053;48.618;10.024;2023-12-20T06:55:44;94287.56;;;4.50;100.00
27643;BME280;15053;48.618;10.024;2023-12-20T06:58:10;94291.47;;;4.52;100.00
27643;BME280;15053;48.618;10.024;2023-12-20T07:00:37;94294.56;;;4.54;100.00
27643;BME280;15053;48.618;10.024;2023-12-20T07:03:04;94298.44;;;4.57;100.00
27643;BME280;15053;48.618;10.024;2023-12-20T07:05:30;94294.06;;;4.57;100.00
27643;BME280;15053;48.618;10.024;2023-12-20T07:07:57;94296.63;;;4.57;100.00
27643;BME280;15053;48.618;10.024;2023-12-20T07:10:24;94294.34;;;4.61;100.00
27643;BME280;15053;48.618;10.024;2023-12-20T07:12:50;94289.19;;;4.61;100.00
27643;BME280;15053;48.618;10.024;2023-12-20T07:15:17;94300.28;;;4.61;100.00
27643;BME280;15053;48.618;10.024;2023-12-20T07:17:44;94296.66;;;4.62;100.00
27643;BME280;15053;48.618;10.024;2023-12-20T07:20:11;94314.50;;;4.64;100.00
27643;BME280;15053;48.618;10.024;2023-12-20T07:22:38;94300.53;;;4.60;100.00
27643;BME280;15053;48.618;10.024;2023-12-20T07:25:06;94304.41;;;4.62;100.00
27643;BME280;15053;48.618;10.024;2023-12-20T07:27:33;94308.56;;;4.63;100.00
27643;BME280;15053;48.618;10.024;2023-12-20T07:29:59;94325.31;;;4.66;100.00
27643;BME280;15053;48.618;10.024;2023-12-20T07:32:26;94317.31;;;4.67;100.00
27643;BME280;15053;48.618;10.024;2023-12-20T07:34:53;94320.69;;;4.68;100.00
27643;BME280;15053;48.618;10.024;2023-12-20T07:37:21;94324.84;;;4.69;100.00
27643;BME280;15053;48.618;10.024;2023-12-20T07:39:48;94324.06;;;4.68;100.00
27643;BME280;15053;48.618;10.024;2023-12-20T07:42:14;94327.69;;;4.72;100.00
27643;BME280;15053;48.618;10.024;2023-12-20T07:44:41;94337.50;;;4.75;100.00
27643;BME280;15053;48.618;10.024;2023-12-20T07:47:07;94333.63;;;4.73;100.00
27643;BME280;15053;48.618;10.024;2023-12-20T07:49:34;94340.34;;;4.74;100.00
27643;BME280;15053;48.618;10.024;2023-12-20T07:52:01;94332.34;;;4.75;100.00
27643;BME280;15053;48.618;10.024;2023-12-20T07:54:27;94339.06;;;4.76;100.00
27643;BME280;15053;48.618;10.024;2023-12-20T07:56:54;94346.03;;;4.81;100.00
27643;BME280;15053;48.618;10.024;2023-12-20T07:59:20;94336.78;;;4.80;100.00
27643;BME280;15053;48.618;10.024;2023-12-20T08:01:58;94348.41;;;4.83;100.00
27643;BME280;15053;48.618;10.024;2023-12-20T08:04:25;94347.91;;;4.86;100.00
27643;BME280;15053;48.618;10.024;2023-12-20T08:06:52;94351.00;;;4.88;100.00
27643;BME280;15053;48.618;10.024;2023-12-20T08:09:19;94345.84;;;4.88;100.00
27643;BME280;15053;48.618;10.024;2023-12-20T08:11:46;94358.47;;;4.89;100.00
27643;BME280;15053;48.618;10.024;2023-12-20T08:14:13;94364.44;;;4.90;100.00
27643;BME280;15053;48.618;10.024;2023-12-20T08:16:40;94360.56;;;4.92;100.00
27643;BME280;15053;48.618;10.024;2023-12-20T08:19:06;94359.75;;;4.87;100.00
27643;BME280;15053;48.618;10.024;2023-12-20T08:21:34;94358.00;;;4.92;100.00
27643;BME280;15053;48.618;10.024;2023-12-20T08:24:03;94370.66;;;4.94;100.00
27643;BME280;15053;48.618;10.024;2023-12-20T08:26:30;94379.19;;;4.94;100.00
27643;BME280;15053;48.618;10.024;2023-12-20T08:28:56;94361.88;;;4.95;100.00
27643;BME280;15053;48.618;10.024;2023-12-20T08:31:26;94369.63;;;4.95;100.00
27643;BME280;15053;48.618;10.024;2023-12-20T08:33:53;94378.44;;;4.99;100.00
27643;BME280;15053;48.618;10.024;2023-12-20T08:36:21;94375.84;;;4.99;100.00
27643;BME280;15053;48.618;10.024;2023-12-20T08:38:50;94377.41;;;5.00;100.00
27643;BME280;15053;48.618;10.024;2023-12-20T08:41:17;94368.13;;;5.04;100.00
27643;BME280;15053;48.618;10.024;2023-12-20T08:43:44;94375.38;;;5.07;100.00
27643;BME280;15053;48.618;10.024;2023-12-20T08:46:10;94350.59;;;5.06;100.00
27643;BME280;15053;48.618;10.024;2023-12-20T08:48:38;94366.63;;;5.08;100.00
27643;BME280;15053;48.618;10.024;2023-12-20T08:51:05;94365.56;;;5.04;100.00
27643;BME280;15053;48.618;10.024;2023-12-20T08:53:35;94365.56;;;5.04;100.00
27643;BME280;15053;48.618;10.024;2023-12-20T08:56:01;94388.78;;;5.04;100.00
27643;BME280;15053;48.618;10.024;2023-12-20T08:58:28;94382.56;;;5.00;100.00
27643;BME280;15053;48.618;10.024;2023-12-20T09:00:55;94384.91;;;5.01;100.00
27643;BME280;15053;48.618;10.024;2023-12-20T09:03:22;94388.50;;;5.00;100.00
27643;BME280;15053;48.618;10.024;2023-12-20T09:05:48;94379.44;;;4.98;100.00
27643;BME280;15053;48.618;10.024;2023-12-20T09:08:15;94377.63;;;4.93;100.00
27643;BME280;15053;48.618;10.024;2023-12-20T09:10:41;94382.25;;;4.91;100.00
27643;BME280;15053;48.618;10.024;2023-12-20T09:13:08;94368.81;;;4.89;100.00
27643;BME280;15053;48.618;10.024;2023-12-20T09:15:34;94382.94;;;4.82;100.00
27643;BME280;15053;48.618;10.024;2023-12-20T09:18:02;94387.31;;;4.81;100.00
27643;BME280;15053;48.618;10.024;2023-12-20T09:20:30;94382.91;;;4.76;100.00
27643;BME280;15053;48.618;10.024;2023-12-20T09:22:57;94389.09;;;4.75;100.00
27643;BME280;15053;48.618;10.024;2023-12-20T09:25:24;94389.34;;;4.74;100.00
27643;BME280;15053;48.618;10.024;2023-12-20T09:27:52;94386.47;;;4.70;100.00
27643;BME280;15053;48.618;10.024;2023-12-20T09:30:19;94382.34;;;4.69;100.00
27643;BME280;15053;48.618;10.024;2023-12-20T09:32:54;94396.59;;;4.77;100.00
27643;BME280;15053;48.618;10.024;2023-12-20T09:35:21;94386.81;;;4.79;100.00
27643;BME280;15053;48.618;10.024;2023-12-20T09:37:48;94380.84;;;4.78;100.00
27643;BME280;15053;48.618;10.024;2023-12-20T09:40:18;94373.91;;;4.79;100.00
27643;BME280;15053;48.618;10.024;2023-12-20T09:42:57;94378.56;;;4.82;100.00
27643;BME280;15053;48.618;10.024;2023-12-20T09:45:24;94373.41;;;4.82;100.00
27643;BME280;15053;48.618;10.024;2023-12-20T09:47:52;94388.63;;;4.84;100.00
27643;BME280;15053;48.618;10.024;2023-12-20T09:50:22;94388.09;;;4.82;100.00
27643;BME280;15053;48.618;10.024;2023-12-20T09:52:51;94381.13;;;4.77;100.00
27643;BME280;15053;48.618;10.024;2023-12-20T09:55:18;94372.09;;;4.80;100.00
27643;BME280;15053;48.618;10.024;2023-12-20T09:57:47;94382.78;;;4.93;100.00
27643;BME280;15053;48.618;10.024;2023-12-20T10:00:14;94372.78;;;5.02;100.00
27643;BME280;15053;48.618;10.024;2023-12-20T10:02:48;94383.09;;;5.02;100.00
27643;BME280;15053;48.618;10.024;2023-12-20T10:05:17;94370.16;;;4.97;100.00
27643;BME280;15053;48.618;10.024;2023-12-20T10:07:47;94372.44;;;4.93;100.00
27643;BME280;15053;48.618;10.024;2023-12-20T10:10:14;94383.78;;;4.92;100.00
27643;BME280;15053;48.618;10.024;2023-12-20T10:13:01;94379.34;;;4.83;100.00
27643;BME280;15053;48.618;10.024;2023-12-20T10:15:27;94387.06;;;4.78;100.00
27643;BME280;15053;48.618;10.024;2023-12-20T10:17:54;94372.09;;;4.80;100.00
27643;BME280;15053;48.618;10.024;2023-12-20T10:20:25;94382.22;;;4.86;100.00
27643;BME280;15053;48.618;10.024;2023-12-20T10:22:52;94367.53;;;4.92;99.62
27643;BME280;15053;48.618;10.024;2023-12-20T10:25:22;94356.78;;;5.05;98.51
27643;BME280;15053;48.618;10.024;2023-12-20T10:27:50;94365.34;;;5.10;97.91
27643;BME280;15053;48.618;10.024;2023-12-20T10:30:17;94381.88;;;5.14;97.54
27643;BME280;15053;48.618;10.024;2023-12-20T10:32:44;94363.81;;;5.19;97.38
27643;BME280;15053;48.618;10.024;2023-12-20T10:35:10;94356.16;;;5.29;96.87
27643;BME280;15053;48.618;10.024;2023-12-20T10:37:37;94352.34;;;5.47;97.03
27643;BME280;15053;48.618;10.024;2023-12-20T10:40:04;94349.81;;;5.57;95.71
27643;BME280;15053;48.618;10.024;2023-12-20T10:42:32;94347.75;;;5.59;93.28
27643;BME280;15053;48.618;10.024;2023-12-20T10:45:03;94359.38;;;5.57;93.36
27643;BME280;15053;48.618;10.024;2023-12-20T10:47:30;94353.41;;;5.51;93.22
27643;BME280;15053;48.618;10.024;2023-12-20T10:49:59;94351.84;;;5.50;92.95
27643;BME280;15053;48.618;10.024;2023-12-20T10:52:27;94360.19;;;5.72;91.84
27643;BME280;15053;48.618;10.024;2023-12-20T10:54:55;94367.50;;;5.85;90.83
27643;BME280;15053;48.618;10.024;2023-12-20T10:57:22;94363.34;;;5.79;88.68
27643;BME280;15053;48.618;10.024;2023-12-20T10:59:53;94359.69;;;5.70;87.89
27643;BME280;15053;48.618;10.024;2023-12-20T11:02:21;94353.44;;;5.66;89.46
27643;BME280;15053;48.618;10.024;2023-12-20T11:07:54;94349.72;;;6.04;90.00
27643;BME280;15053;48.618;10.024;2023-12-20T11:10:36;94330.34;;;6.22;88.25
27643;BME280;15053;48.618;10.024;2023-12-20T11:13:16;94342.00;;;6.49;86.37
27643;BME280;15053;48.618;10.024;2023-12-20T11:15:44;94334.75;;;6.46;85.19
27643;BME280;15053;48.618;10.024;2023-12-20T11:18:10;94346.66;;;6.42;83.27
27643;BME280;15053;48.618;10.024;2023-12-20T11:20:38;94348.97;;;6.29;82.20
27643;BME280;15053;48.618;10.024;2023-12-20T11:23:06;94347.94;;;6.20;82.56
27643;BME280;15053;48.618;10.024;2023-12-20T11:25:53;94355.91;;;6.08;82.38
27643;BME280;15053;48.618;10.024;2023-12-20T11:28:23;94357.44;;;5.99;82.04
27643;BME280;15053;48.618;10.024;2023-12-20T11:30:53;94379.06;;;5.73;82.82
27643;BME280;15053;48.618;10.024;2023-12-20T11:33:24;94347.19;;;5.47;83.52
27643;BME280;15053;48.618;10.024;2023-12-20T11:35:56;94349.13;;;5.25;84.25
27643;BME280;15053;48.618;10.024;2023-12-20T11:38:23;94341.84;;;5.12;86.62
27643;BME280;15053;48.618;10.024;2023-12-20T11:40:53;94338.50;;;5.11;86.38
27643;BME280;15053;48.618;10.024;2023-12-20T11:43:31;94332.84;;;5.19;87.24
27643;BME280;15053;48.618;10.024;2023-12-20T11:46:03;94332.16;;;5.34;85.73
27643;BME280;15053;48.618;10.024;2023-12-20T11:48:31;94338.91;;;5.40;85.38
27643;BME280;15053;48.618;10.024;2023-12-20T11:50:58;94327.63;;;5.66;85.95
27643;BME280;15053;48.618;10.024;2023-12-20T11:53:25;94331.56;;;5.84;86.12
27643;BME280;15053;48.618;10.024;2023-12-20T11:55:54;94334.38;;;5.77;84.20
27643;BME280;15053;48.618;10.024;2023-12-20T11:58:21;94330.19;;;5.66;84.17
27643;BME280;15053;48.618;10.024;2023-12-20T12:00:49;94328.69;;;5.80;85.65
27643;BME280;15053;48.618;10.024;2023-12-20T12:03:16;94321.03;;;6.06;82.77
27643;BME280;15053;48.618;10.024;2023-12-20T12:05:43;94328.25;;;6.04;83.62
27643;BME280;15053;48.618;10.024;2023-12-20T12:08:09;94312.75;;;6.24;83.11
27643;BME280;15053;48.618;10.024;2023-12-20T12:10:36;94317.94;;;6.34;82.02
27643;BME280;15053;48.618;10.024;2023-12-20T12:13:03;94310.16;;;6.19;80.80
27643;BME280;15053;48.618;10.024;2023-12-20T12:15:30;94312.75;;;6.04;82.23
27643;BME280;15053;48.618;10.024;2023-12-20T12:17:57;94302.66;;;5.97;82.74
27643;BME280;15053;48.618;10.024;2023-12-20T12:20:24;94302.66;;;5.92;83.21
27643;BME280;15053;48.618;10.024;2023-12-20T12:23:04;94312.16;;;5.76;80.56
27643;BME280;15053;48.618;10.024;2023-12-20T12:25:32;94305.41;;;5.65;81.22
27643;BME280;15053;48.618;10.024;2023-12-20T12:27:59;94313.66;;;5.57;81.43
27643;BME280;15053;48.618;10.024;2023-12-20T12:30:26;94322.41;;;5.51;80.77
27643;BME280;15053;48.618;10.024;2023-12-20T12:32:58;94322.66;;;5.50;81.31
27643;BME280;15053;48.618;10.024;2023-12-20T12:35:24;94312.56;;;5.38;79.93
27643;BME280;15053;48.618;10.024;2023-12-20T12:37:51;94328.53;;;5.30;79.77
27643;BME280;15053;48.618;10.024;2023-12-20T12:40:18;94310.16;;;5.21;81.21
27643;BME280;15053;48.618;10.024;2023-12-20T12:42:45;94317.09;;;5.16;81.43
27643;BME280;15053;48.618;10.024;2023-12-20T12:45:13;94326.38;;;5.12;81.21
27643;BME280;15053;48.618;10.024;2023-12-20T12:47:40;94324.25;;;5.04;81.33
27643;BME280;15053;48.618;10.024;2023-12-20T12:50:06;94316.50;;;4.99;82.80
27643;BME280;15053;48.618;10.024;2023-12-20T12:52:33;94316.50;;;4.99;82.38
27643;BME280;15053;48.618;10.024;2023-12-20T12:55:01;94322.16;;;4.96;82.79
27643;BME280;15053;48.618;10.024;2023-12-20T12:57:29;94315.91;;;4.92;83.36